Time;durP1;ratioP1;P1;durP2;ratioP2;P2;SDS_P1;SDS_P2;PMS_P1;PMS_P2;Temp;Humidity;BMP_temperature;BMP_pressure;BME280_temperature;BME280_humidity;BME280_pressure;Samples;Min_cycle;Max_cycle;Signal;HPM_P1;HPM_P2
2022/12/04 00:01:59;;;;;;;67.23;27.53;;;1.70;99.90;;;;;;4984129;28;20562;-57
2022/12/04 00:04:28;;;;;;;71.37;27.90;;;1.60;99.90;;;;;;5009125;28;20191;-56
2022/12/04 00:06:58;;;;;;;72.63;27.07;;;1.70;99.90;;;;;;4978766;28;20535;-56
2022/12/04 00:09:26;;;;;;;74.20;28.30;;;1.60;99.90;;;;;;4983889;28;20588;-56
2022/12/04 00:11:55;;;;;;;76.93;29.03;;;1.60;99.90;;;;;;4981079;28;20281;-57
2022/12/04 00:14:23;;;;;;;73.00;28.03;;;1.50;99.90;;;;;;4976931;28;20225;-56
2022/12/04 00:16:51;;;;;;;69.10;28.00;;;1.50;99.90;;;;;;5045079;28;20231;-56
2022/12/04 00:19:20;;;;;;;77.97;29.07;;;1.40;99.90;;;;;;4980209;28;20199;-56
2022/12/04 00:21:49;;;;;;;72.47;28.10;;;1.30;99.90;;;;;;4979511;28;20209;-56
2022/12/04 00:24:19;;;;;;;68.23;27.67;;;1.20;99.90;;;;;;4982221;28;20192;-56
2022/12/04 00:26:47;;;;;;;77.10;28.00;;;1.20;99.90;;;;;;4974758;28;20205;-57
2022/12/04 00:29:16;;;;;;;74.93;27.40;;;1.10;99.90;;;;;;4978530;28;20195;-55
2022/12/04 00:31:44;;;;;;;71.83;27.00;;;1.10;99.90;;;;;;4978573;28;20195;-56
2022/12/04 00:34:13;;;;;;;75.40;28.47;;;1.00;99.90;;;;;;4981944;28;20693;-56
2022/12/04 00:36:41;;;;;;;82.20;28.20;;;1.00;99.90;;;;;;5003851;28;20200;-56
2022/12/04 00:39:09;;;;;;;77.13;28.43;;;0.90;99.90;;;;;;4975123;28;20209;-56
2022/12/04 00:41:42;;;;;;;78.17;28.33;;;0.90;99.90;;;;;;4990379;28;20198;-55
2022/12/04 00:44:10;;;;;;;81.30;29.67;;;0.80;99.90;;;;;;4975135;28;20206;-57
2022/12/04 00:46:38;;;;;;;76.93;28.17;;;0.80;99.90;;;;;;4983753;28;20195;-56
2022/12/04 00:49:07;;;;;;;82.07;28.63;;;0.70;99.90;;;;;;4980492;28;20195;-57
2022/12/04 00:51:35;;;;;;;73.30;27.87;;;0.70;99.90;;;;;;4981003;28;20222;-56
2022/12/04 00:54:04;;;;;;;78.60;28.90;;;0.70;99.90;;;;;;4984552;28;20721;-56
2022/12/04 00:56:32;;;;;;;77.60;29.00;;;0.70;99.90;;;;;;4986580;28;20211;-56
2022/12/04 00:59:02;;;;;;;83.00;29.87;;;0.60;99.90;;;;;;4978982;28;20284;-56
2022/12/04 01:01:31;;;;;;;78.47;28.67;;;0.60;99.90;;;;;;4977553;28;20683;-56
2022/12/04 01:03:59;;;;;;;83.33;29.73;;;0.60;99.90;;;;;;4999108;28;20256;-56
2022/12/04 01:06:30;;;;;;;77.70;28.13;;;0.60;99.90;;;;;;4979794;28;20679;-57
2022/12/04 01:09:00;;;;;;;88.33;29.83;;;0.50;99.90;;;;;;4986043;28;20640;-55
2022/12/04 01:11:29;;;;;;;85.40;30.30;;;0.50;99.90;;;;;;4980458;28;20202;-56
2022/12/04 01:13:58;;;;;;;82.40;28.70;;;0.50;99.90;;;;;;4972879;28;20203;-56
2022/12/04 01:16:31;;;;;;;82.70;29.37;;;0.50;99.90;;;;;;4987687;28;20255;-56
2022/12/04 01:18:59;;;;;;;91.67;29.73;;;0.40;99.90;;;;;;5002491;28;20273;-56
2022/12/04 01:21:28;;;;;;;77.77;29.20;;;0.40;99.90;;;;;;4984571;28;20210;-57
2022/12/04 01:23:57;;;;;;;84.87;30.00;;;0.30;99.90;;;;;;4980036;28;20527;-57
2022/12/04 01:26:26;;;;;;;77.97;29.13;;;0.40;99.90;;;;;;4981513;28;20195;-56
2022/12/04 01:28:54;;;;;;;82.63;29.20;;;0.30;99.90;;;;;;5002725;28;20290;-56
2022/12/04 01:31:23;;;;;;;83.73;30.07;;;0.30;99.90;;;;;;4996328;28;20196;-56
2022/12/04 01:33:52;;;;;;;75.60;29.23;;;0.30;99.90;;;;;;4987877;28;20199;-55
2022/12/04 01:36:26;;;;;;;84.03;29.30;;;0.30;99.90;;;;;;4989354;28;20561;-56
2022/12/04 01:38:55;;;;;;;85.00;30.13;;;0.40;99.90;;;;;;4984660;28;20208;-57
2022/12/04 01:41:27;;;;;;;92.57;30.20;;;0.40;99.90;;;;;;4978150;28;20202;-56
2022/12/04 01:44:13;;;;;;;84.10;29.83;;;0.50;99.90;;;;;;4983282;28;20202;-54
2022/12/04 01:46:43;;;;;;;82.17;30.13;;;0.50;99.90;;;;;;4981304;28;20195;-56
2022/12/04 01:49:17;;;;;;;83.50;30.40;;;0.50;99.90;;;;;;4982043;28;20206;-57
2022/12/04 01:51:50;;;;;;;89.23;31.10;;;0.50;99.90;;;;;;4993003;28;20552;-56
2022/12/04 01:54:27;;;;;;;86.47;30.07;;;0.40;99.90;;;;;;4988079;28;20194;-56
2022/12/04 01:57:02;;;;;;;87.47;29.77;;;0.40;99.90;;;;;;4990979;28;20203;-56
2022/12/04 01:59:35;;;;;;;85.63;29.80;;;0.30;99.90;;;;;;4985006;28;20645;-56
2022/12/04 02:02:07;;;;;;;77.13;29.00;;;0.30;99.90;;;;;;4989202;28;20195;-56
2022/12/04 02:04:38;;;;;;;89.30;30.87;;;0.30;99.90;;;;;;4985783;28;20287;-56
2022/12/04 02:07:07;;;;;;;92.77;31.27;;;0.20;99.90;;;;;;4979543;28;20287;-56
2022/12/04 02:09:38;;;;;;;95.90;30.90;;;0.20;99.90;;;;;;4988550;28;20202;-57
2022/12/04 02:12:12;;;;;;;88.33;30.97;;;0.10;99.90;;;;;;4986014;28;20226;-56
2022/12/04 02:14:50;;;;;;;89.87;30.10;;;0.10;99.90;;;;;;4979530;28;20235;-56
2022/12/04 02:17:27;;;;;;;106.70;33.87;;;0.10;99.90;;;;;;4981182;28;20234;-56
2022/12/04 02:20:10;;;;;;;85.17;30.97;;;0.10;99.90;;;;;;5005965;28;20206;-56
2022/12/04 02:22:54;;;;;;;85.93;29.87;;;0.10;99.90;;;;;;4981983;28;20248;-56
2022/12/04 02:25:32;;;;;;;100.67;33.37;;;0.20;99.90;;;;;;4985634;28;20244;-56
2022/12/04 02:28:10;;;;;;;91.37;31.83;;;0.20;99.90;;;;;;4987559;28;20198;-56
2022/12/04 02:30:41;;;;;;;98.27;31.30;;;0.20;99.90;;;;;;4981952;28;20195;-56
2022/12/04 02:33:17;;;;;;;90.47;30.97;;;0.20;99.90;;;;;;4987251;28;20538;-56
2022/12/04 02:35:49;;;;;;;93.57;33.83;;;0.20;99.90;;;;;;4985208;28;20218;-56
2022/12/04 02:38:23;;;;;;;96.33;32.10;;;0.20;99.90;;;;;;4985023;28;20677;-56
2022/12/04 02:40:57;;;;;;;100.70;32.33;;;0.10;99.90;;;;;;4984131;28;20507;-56
2022/12/04 02:43:32;;;;;;;101.97;33.67;;;0.10;99.90;;;;;;4979941;28;20209;-55
2022/12/04 02:46:05;;;;;;;103.83;32.90;;;0.10;99.90;;;;;;4983459;28;20781;-56
2022/12/04 02:48:39;;;;;;;96.20;31.60;;;0.10;99.90;;;;;;4987015;28;20191;-57
2022/12/04 02:51:13;;;;;;;94.30;31.77;;;0.10;99.90;;;;;;5026743;28;20199;-56
2022/12/04 02:53:45;;;;;;;98.60;32.97;;;0.10;99.90;;;;;;4988352;28;20202;-56
2022/12/04 02:56:19;;;;;;;94.57;31.13;;;0.00;99.90;;;;;;4977424;28;20796;-55
2022/12/04 02:58:51;;;;;;;95.90;32.03;;;0.00;99.90;;;;;;4982769;28;20198;-56
2022/12/04 03:01:23;;;;;;;104.60;34.07;;;0.00;99.90;;;;;;4981319;28;20258;-56
2022/12/04 03:03:58;;;;;;;102.57;32.13;;;0.00;99.90;;;;;;4986842;28;20286;-56
2022/12/04 03:06:29;;;;;;;105.67;32.80;;;0.00;99.90;;;;;;4977690;28;20195;-56
2022/12/04 03:09:02;;;;;;;90.63;32.93;;;-0.10;99.90;;;;;;4985769;28;20192;-56
2022/12/04 03:11:35;;;;;;;103.27;33.53;;;-0.10;99.90;;;;;;4982600;28;20202;-56
2022/12/04 03:14:12;;;;;;;108.73;32.83;;;-0.10;99.90;;;;;;4975857;28;20203;-54
2022/12/04 03:16:42;;;;;;;109.87;33.77;;;-0.10;99.90;;;;;;4973352;28;20235;-55
2022/12/04 03:19:15;;;;;;;99.63;31.23;;;-0.10;99.90;;;;;;4991204;28;20194;-56
2022/12/04 03:21:48;;;;;;;107.93;31.30;;;-0.10;99.90;;;;;;5013687;28;20197;-56
2022/12/04 03:24:20;;;;;;;114.20;35.77;;;-0.20;99.90;;;;;;4980032;28;20206;-56
2022/12/04 03:26:57;;;;;;;99.17;32.10;;;-0.20;99.90;;;;;;4983793;28;20192;-56
2022/12/04 03:29:33;;;;;;;115.60;33.57;;;-0.20;99.90;;;;;;4980667;28;20215;-54
2022/12/04 03:32:10;;;;;;;105.47;33.03;;;-0.20;99.90;;;;;;4975453;28;20641;-56
2022/12/04 03:34:48;;;;;;;104.07;33.63;;;-0.20;99.90;;;;;;4999652;28;20195;-54
2022/12/04 03:37:21;;;;;;;103.80;32.47;;;-0.20;99.90;;;;;;4982378;28;20211;-56
2022/12/04 03:39:58;;;;;;;108.23;33.47;;;-0.20;99.90;;;;;;4975562;28;20192;-56
2022/12/04 03:42:32;;;;;;;109.67;31.70;;;-0.20;99.90;;;;;;4973208;28;20531;-56
2022/12/04 03:45:14;;;;;;;107.57;32.17;;;-0.20;99.90;;;;;;4981043;28;20284;-55
2022/12/04 03:47:48;;;;;;;110.03;31.83;;;-0.20;99.90;;;;;;4972312;28;20210;-56
2022/12/04 03:50:21;;;;;;;111.70;32.50;;;-0.20;99.90;;;;;;5006001;28;20633;-56
2022/12/04 03:53:00;;;;;;;103.30;31.07;;;-0.20;99.90;;;;;;4985247;28;20209;-56
2022/12/04 03:55:32;;;;;;;103.47;32.53;;;-0.10;99.90;;;;;;4968985;28;20219;-56
2022/12/04 03:58:06;;;;;;;100.27;31.63;;;-0.10;99.90;;;;;;4982485;28;20526;-56
2022/12/04 04:00:39;;;;;;;103.43;32.03;;;0.00;99.90;;;;;;4983835;28;20717;-56
2022/12/04 04:03:11;;;;;;;98.43;30.47;;;0.00;99.90;;;;;;4973981;28;20188;-55
2022/12/04 04:05:44;;;;;;;103.20;31.47;;;0.00;99.90;;;;;;4982486;28;20206;-56
2022/12/04 04:08:29;;;;;;;104.97;32.20;;;0.10;99.90;;;;;;4989329;28;20211;-56
2022/12/04 04:11:02;;;;;;;99.23;31.57;;;0.10;99.90;;;;;;4975652;28;20195;-56
2022/12/04 04:24:57;;;;;;;92.00;30.83;;;0.30;99.90;;;;;;4979483;28;20195;-56
2022/12/04 04:27:25;;;;;;;94.47;31.83;;;0.40;99.90;;;;;;4986321;28;20203;-56
2022/12/04 04:29:54;;;;;;;97.43;31.53;;;0.40;99.90;;;;;;4990054;28;20553;-56
2022/12/04 04:32:32;;;;;;;101.10;31.23;;;0.40;99.90;;;;;;4986434;28;20194;-57
2022/12/04 04:35:09;;;;;;;93.53;31.27;;;0.50;99.90;;;;;;4983519;28;20290;-56
2022/12/04 04:37:46;;;;;;;94.27;30.40;;;0.50;99.90;;;;;;4988620;28;20246;-56
2022/12/04 04:40:21;;;;;;;83.40;30.30;;;0.50;99.90;;;;;;4987661;28;20640;-56
2022/12/04 04:43:02;;;;;;;90.93;30.37;;;0.60;99.90;;;;;;4985249;28;20194;-57
2022/12/04 04:45:36;;;;;;;94.13;29.90;;;0.60;99.90;;;;;;4980952;28;20639;-56
2022/12/04 04:48:09;;;;;;;92.93;31.27;;;0.70;99.90;;;;;;4996166;28;20201;-56
2022/12/04 04:50:39;;;;;;;97.63;31.20;;;0.70;99.90;;;;;;4986922;28;20198;-56
2022/12/04 04:53:12;;;;;;;86.37;30.20;;;0.70;99.90;;;;;;4982023;28;20191;-56
2022/12/04 04:55:42;;;;;;;92.90;31.97;;;0.70;99.90;;;;;;4976829;28;20218;-56
2022/12/04 04:58:12;;;;;;;86.43;28.70;;;0.70;99.90;;;;;;4967778;28;20195;-57
2022/12/04 05:00:41;;;;;;;81.80;28.27;;;0.80;99.90;;;;;;4986530;28;20266;-56
2022/12/04 05:03:11;;;;;;;86.50;29.87;;;0.80;99.90;;;;;;4986110;28;20665;-57
2022/12/04 05:05:39;;;;;;;89.30;31.27;;;0.80;99.90;;;;;;4981382;28;20624;-55
2022/12/04 05:08:07;;;;;;;88.33;30.17;;;0.80;99.90;;;;;;4984651;28;20195;-56
2022/12/04 05:10:36;;;;;;;80.47;28.93;;;0.80;99.90;;;;;;4988570;28;20207;-56
2022/12/04 05:13:04;;;;;;;82.83;29.37;;;0.80;99.90;;;;;;4980705;28;20205;-56
2022/12/04 05:15:33;;;;;;;83.10;29.83;;;0.80;99.90;;;;;;4979139;28;20222;-57
2022/12/04 05:18:01;;;;;;;79.70;28.77;;;0.90;99.90;;;;;;4986106;28;20242;-56
2022/12/04 05:20:30;;;;;;;86.50;30.53;;;0.90;99.90;;;;;;4973157;28;20190;-56
2022/12/04 05:22:58;;;;;;;82.70;29.97;;;0.90;99.90;;;;;;4987663;28;20195;-56
2022/12/04 05:25:27;;;;;;;83.07;30.47;;;0.90;99.90;;;;;;4981360;28;20199;-56
2022/12/04 05:27:55;;;;;;;86.20;30.60;;;0.90;99.90;;;;;;4981519;28;20196;-57
2022/12/04 05:30:23;;;;;;;81.47;30.57;;;0.90;99.90;;;;;;4997587;28;20209;-56
2022/12/04 05:32:52;;;;;;;84.00;31.23;;;0.90;99.90;;;;;;4985175;28;20187;-56
2022/12/04 05:35:20;;;;;;;84.17;30.10;;;1.00;99.90;;;;;;4980519;28;20207;-56
2022/12/04 05:37:50;;;;;;;88.97;29.87;;;0.90;99.90;;;;;;4979465;28;20218;-56
2022/12/04 05:40:18;;;;;;;83.87;29.60;;;0.90;99.90;;;;;;4989119;28;20195;-56
2022/12/04 05:42:47;;;;;;;85.80;30.70;;;0.90;99.90;;;;;;4986952;28;20194;-56
2022/12/04 05:45:15;;;;;;;85.73;30.83;;;1.00;99.90;;;;;;4979129;28;20199;-57
2022/12/04 05:47:44;;;;;;;88.17;29.63;;;1.00;99.90;;;;;;4998166;28;20191;-56
2022/12/04 05:50:13;;;;;;;82.80;28.57;;;1.00;99.90;;;;;;5003436;28;20213;-56
2022/12/04 05:52:45;;;;;;;84.20;31.70;;;1.00;99.90;;;;;;4982398;28;20203;-56
2022/12/04 05:55:15;;;;;;;84.60;29.67;;;1.00;99.90;;;;;;4988568;28;20203;-57
2022/12/04 05:57:44;;;;;;;95.50;32.10;;;1.00;99.90;;;;;;4985137;28;20220;-56
2022/12/04 06:00:13;;;;;;;78.77;29.53;;;1.00;99.90;;;;;;5000011;28;20199;-56
2022/12/04 06:02:42;;;;;;;76.97;29.40;;;1.00;99.90;;;;;;5006375;28;20198;-56
2022/12/04 06:05:10;;;;;;;77.07;29.13;;;1.00;99.90;;;;;;4983277;28;20211;-57
2022/12/04 06:07:39;;;;;;;86.17;29.83;;;1.00;99.90;;;;;;4972719;28;20204;-56
2022/12/04 06:10:08;;;;;;;85.10;30.87;;;1.00;99.90;;;;;;4988733;28;20204;-57
2022/12/04 06:12:37;;;;;;;83.67;29.77;;;1.00;99.90;;;;;;4989057;28;20190;-56
2022/12/04 06:15:06;;;;;;;81.13;28.97;;;1.00;99.90;;;;;;4988382;28;20210;-56
2022/12/04 06:17:35;;;;;;;83.53;28.90;;;1.00;99.90;;;;;;4980825;28;21948;-57
2022/12/04 06:20:07;;;;;;;86.17;29.80;;;1.00;99.90;;;;;;4988677;28;20668;-56
2022/12/04 06:22:39;;;;;;;80.23;29.43;;;1.00;99.90;;;;;;4996727;28;20202;-56
2022/12/04 06:25:08;;;;;;;89.43;29.73;;;1.00;99.90;;;;;;4998420;28;20192;-56
2022/12/04 06:27:38;;;;;;;83.53;28.27;;;1.00;99.90;;;;;;4982876;28;20700;-56
2022/12/04 06:30:07;;;;;;;78.63;29.03;;;1.00;99.90;;;;;;4978774;28;20199;-57
2022/12/04 06:32:36;;;;;;;77.27;28.53;;;1.00;99.90;;;;;;4981031;28;20199;-56
2022/12/04 06:35:05;;;;;;;78.13;29.07;;;1.00;99.90;;;;;;4981713;28;20191;-56
2022/12/04 06:37:34;;;;;;;77.30;28.57;;;1.00;99.90;;;;;;4974747;28;20208;-57
2022/12/04 06:40:02;;;;;;;83.27;29.67;;;1.00;99.90;;;;;;4973564;28;20195;-57
2022/12/04 06:42:30;;;;;;;78.47;28.67;;;1.00;99.90;;;;;;4977051;28;20542;-56
2022/12/04 06:45:00;;;;;;;78.17;28.13;;;1.00;99.90;;;;;;4988629;28;20218;-57
2022/12/04 06:47:28;;;;;;;77.77;29.47;;;1.00;99.90;;;;;;4972965;28;20187;-57
2022/12/04 06:49:57;;;;;;;82.33;29.70;;;1.10;99.90;;;;;;4979051;28;20191;-55
2022/12/04 06:52:26;;;;;;;83.70;30.50;;;1.10;99.90;;;;;;4988174;28;20191;-56
2022/12/04 06:54:54;;;;;;;78.47;28.23;;;1.10;99.90;;;;;;4987702;28;20206;-56
2022/12/04 06:57:22;;;;;;;78.37;29.57;;;1.10;99.90;;;;;;4978991;28;20219;-56
2022/12/04 06:59:51;;;;;;;73.40;28.93;;;1.10;99.90;;;;;;4989168;28;20207;-57
2022/12/04 07:02:20;;;;;;;78.57;29.37;;;1.10;99.90;;;;;;4988449;28;20191;-57
2022/12/04 07:04:49;;;;;;;72.60;29.17;;;1.10;99.90;;;;;;5016831;28;20211;-56
2022/12/04 07:07:17;;;;;;;73.07;29.13;;;1.10;99.90;;;;;;4983974;28;20191;-56
2022/12/04 07:09:46;;;;;;;79.10;30.13;;;1.10;99.90;;;;;;4986090;28;20198;-56
2022/12/04 07:12:14;;;;;;;72.43;28.17;;;1.10;99.90;;;;;;4984162;28;20195;-56
2022/12/04 07:14:42;;;;;;;79.77;29.17;;;1.10;99.90;;;;;;4985144;28;20204;-56
2022/12/04 07:17:11;;;;;;;73.43;29.03;;;1.10;99.90;;;;;;4989316;28;20234;-56
2022/12/04 07:19:40;;;;;;;78.50;28.83;;;1.10;99.90;;;;;;4987698;28;20203;-56
2022/12/04 07:22:09;;;;;;;70.10;27.90;;;1.10;99.90;;;;;;4984549;28;20199;-57
2022/12/04 07:24:37;;;;;;;75.00;27.50;;;1.10;99.90;;;;;;4982478;28;20206;-55
2022/12/04 07:27:05;;;;;;;70.73;28.70;;;1.10;99.90;;;;;;4977601;28;20195;-56
2022/12/04 07:29:34;;;;;;;79.47;29.60;;;1.10;99.90;;;;;;4984825;28;20199;-56
2022/12/04 07:32:05;;;;;;;82.80;29.53;;;1.10;99.90;;;;;;4984608;28;20194;-57
2022/12/04 07:34:34;;;;;;;81.57;30.77;;;1.10;99.90;;;;;;4977214;28;20568;-56
2022/12/04 07:37:04;;;;;;;74.07;28.23;;;1.10;99.90;;;;;;4982107;28;20199;-56
2022/12/04 07:39:32;;;;;;;68.80;27.37;;;1.10;99.90;;;;;;4988928;28;20203;-56
2022/12/04 07:42:00;;;;;;;80.57;29.50;;;1.10;99.90;;;;;;4977689;28;20805;-56
2022/12/04 07:44:31;;;;;;;75.03;28.87;;;1.20;99.90;;;;;;4988544;28;20565;-56
2022/12/04 07:46:59;;;;;;;71.87;30.10;;;1.20;99.90;;;;;;4968722;28;20206;-57
2022/12/04 07:49:27;;;;;;;77.50;29.50;;;1.20;99.90;;;;;;4978963;28;20191;-57
2022/12/04 07:51:56;;;;;;;72.53;29.77;;;1.20;99.90;;;;;;4978401;28;20200;-56
2022/12/04 07:54:25;;;;;;;79.90;30.57;;;1.20;99.90;;;;;;4982483;28;20198;-56
2022/12/04 07:56:53;;;;;;;77.43;30.70;;;1.20;99.90;;;;;;4980901;28;20207;-56
2022/12/04 07:59:22;;;;;;;79.73;29.83;;;1.20;99.90;;;;;;4985734;28;20268;-56
2022/12/04 08:01:50;;;;;;;76.00;28.97;;;1.20;99.90;;;;;;4986209;28;20297;-57
2022/12/04 08:04:19;;;;;;;71.37;28.10;;;1.30;99.90;;;;;;4989579;28;20202;-56
2022/12/04 08:06:47;;;;;;;71.00;28.53;;;1.30;99.90;;;;;;4999073;28;20589;-57
2022/12/04 08:09:16;;;;;;;72.80;29.17;;;1.30;99.90;;;;;;4992577;28;20199;-56
2022/12/04 08:11:45;;;;;;;81.87;30.83;;;1.30;99.90;;;;;;4999176;28;20195;-57
2022/12/04 08:14:14;;;;;;;75.97;30.33;;;1.30;99.90;;;;;;5032788;27;20207;-57
2022/12/04 08:16:43;;;;;;;77.07;29.60;;;1.40;99.90;;;;;;4990649;28;20239;-57
2022/12/04 08:19:18;;;;;;;81.27;30.77;;;1.40;99.90;;;;;;4988113;28;20234;-56
2022/12/04 08:21:46;;;;;;;70.67;28.53;;;1.40;99.90;;;;;;4988313;28;20205;-56
2022/12/04 08:24:14;;;;;;;75.47;30.00;;;1.50;99.90;;;;;;5023694;28;20551;-56
2022/12/04 08:26:44;;;;;;;71.83;28.17;;;1.50;99.90;;;;;;4981967;28;20199;-57
2022/12/04 08:29:13;;;;;;;72.70;30.13;;;1.50;99.90;;;;;;4972038;28;20202;-57
2022/12/04 08:31:41;;;;;;;78.40;30.33;;;1.50;99.90;;;;;;4978058;28;20285;-57
2022/12/04 08:34:09;;;;;;;85.53;30.93;;;1.50;99.90;;;;;;4980077;28;20195;-57
2022/12/04 08:36:37;;;;;;;76.30;29.97;;;1.50;99.90;;;;;;4991960;28;20272;-57
2022/12/04 08:39:06;;;;;;;75.07;29.03;;;1.50;99.90;;;;;;4972132;28;20219;-57
2022/12/04 08:41:34;;;;;;;79.20;31.23;;;1.50;99.90;;;;;;4979452;28;20210;-57
2022/12/04 08:44:05;;;;;;;76.77;30.10;;;1.50;99.90;;;;;;4983404;28;20201;-57
2022/12/04 08:46:33;;;;;;;71.90;29.10;;;1.50;99.90;;;;;;4979664;28;20770;-56
2022/12/04 08:49:03;;;;;;;81.27;31.83;;;1.60;99.90;;;;;;4985246;28;20207;-57
2022/12/04 08:51:33;;;;;;;86.80;32.50;;;1.60;99.90;;;;;;4979469;28;20203;-57
2022/12/04 08:54:04;;;;;;;69.87;29.50;;;1.60;99.90;;;;;;4989680;28;20545;-56
2022/12/04 08:56:33;;;;;;;75.73;30.23;;;1.70;99.90;;;;;;5015964;28;20203;-57
2022/12/04 08:59:02;;;;;;;79.37;30.63;;;1.80;99.90;;;;;;4993222;28;20206;-56
2022/12/04 09:01:31;;;;;;;78.50;30.67;;;1.70;99.90;;;;;;4983375;28;20210;-57
2022/12/04 09:04:00;;;;;;;80.10;31.13;;;1.70;99.90;;;;;;4981415;28;20196;-56
2022/12/04 09:06:28;;;;;;;73.43;29.83;;;1.70;99.90;;;;;;4982297;28;20206;-57
2022/12/04 09:08:57;;;;;;;75.67;30.63;;;1.70;99.90;;;;;;4974174;28;20199;-56
2022/12/04 09:11:28;;;;;;;78.40;31.23;;;1.70;99.90;;;;;;4971293;28;20648;-56
2022/12/04 09:13:56;;;;;;;76.80;31.10;;;1.70;99.90;;;;;;4987379;28;20522;-56
2022/12/04 09:16:26;;;;;;;74.27;30.17;;;1.80;99.90;;;;;;4976141;28;20239;-57
2022/12/04 09:18:56;;;;;;;78.30;30.37;;;1.90;99.90;;;;;;4983843;28;20211;-56
2022/12/04 09:21:25;;;;;;;79.60;31.73;;;1.90;99.90;;;;;;4986461;28;20290;-56
2022/12/04 09:23:53;;;;;;;77.10;31.13;;;1.90;99.90;;;;;;4980591;28;20240;-56
2022/12/04 09:26:25;;;;;;;73.77;31.07;;;1.90;99.90;;;;;;4969418;28;20206;-56
2022/12/04 09:28:55;;;;;;;74.27;29.23;;;1.90;99.90;;;;;;4974340;28;20203;-57
2022/12/04 09:31:24;;;;;;;84.10;32.83;;;1.90;99.90;;;;;;4978488;28;20202;-56
2022/12/04 09:33:52;;;;;;;76.13;31.20;;;2.00;99.90;;;;;;4982951;28;20203;-57
2022/12/04 09:36:22;;;;;;;78.23;31.10;;;2.00;99.90;;;;;;4971793;28;20195;-56
2022/12/04 09:38:53;;;;;;;71.00;29.23;;;2.20;99.90;;;;;;4979543;28;20743;-56
2022/12/04 09:41:50;;;;;;;77.10;30.77;;;2.10;99.90;;;;;;4980505;28;20210;-56
2022/12/04 09:44:23;;;;;;;68.00;30.00;;;2.10;99.90;;;;;;4978377;28;20217;-57
2022/12/04 09:46:55;;;;;;;73.50;30.87;;;2.10;99.90;;;;;;4976084;28;20552;-57
2022/12/04 09:49:29;;;;;;;78.17;31.50;;;2.10;99.90;;;;;;4980734;28;20577;-56
2022/12/04 09:52:02;;;;;;;78.90;31.67;;;2.10;99.90;;;;;;4990799;28;20205;-56
2022/12/04 09:54:38;;;;;;;72.77;31.03;;;2.10;99.90;;;;;;4966195;28;20204;-57
2022/12/04 09:57:14;;;;;;;76.10;31.87;;;2.10;99.90;;;;;;4979414;28;20213;-57
2022/12/04 09:59:44;;;;;;;75.97;32.40;;;2.10;99.90;;;;;;4990027;28;20590;-56
2022/12/04 10:02:31;;;;;;;79.07;32.17;;;2.10;99.90;;;;;;4990546;28;20199;-57
2022/12/04 10:05:00;;;;;;;87.23;34.10;;;2.10;99.90;;;;;;4977224;28;20660;-57
2022/12/04 10:07:36;;;;;;;79.53;33.07;;;2.10;99.90;;;;;;4970777;28;20195;-57
2022/12/04 10:10:13;;;;;;;83.80;34.23;;;2.00;99.90;;;;;;4972549;28;20203;-56
2022/12/04 10:12:49;;;;;;;78.77;33.03;;;2.00;99.90;;;;;;4976005;28;20194;-56
2022/12/04 10:15:29;;;;;;;81.40;34.00;;;2.00;99.90;;;;;;4971554;28;20204;-57
2022/12/04 10:18:22;;;;;;;78.67;32.60;;;2.00;99.90;;;;;;4974160;28;20198;-57
2022/12/04 10:21:35;;;;;;;79.40;33.33;;;2.10;99.90;;;;;;4969367;28;20926;-56
2022/12/04 10:24:17;;;;;;;77.63;31.70;;;2.00;99.90;;;;;;4945524;28;20211;-55
2022/12/04 10:26:48;;;;;;;75.03;31.90;;;2.10;99.90;;;;;;4979505;28;21006;-57
2022/12/04 10:29:20;;;;;;;87.30;35.20;;;2.10;99.90;;;;;;4974247;28;20188;-56
2022/12/04 10:31:51;;;;;;;77.73;34.33;;;2.10;99.90;;;;;;4973795;28;20198;-57
2022/12/04 10:34:23;;;;;;;89.73;36.10;;;2.00;99.90;;;;;;4988711;28;20198;-56
2022/12/04 10:36:54;;;;;;;75.63;32.90;;;2.00;99.90;;;;;;4988055;28;20199;-56
2022/12/04 10:39:27;;;;;;;78.80;33.43;;;2.00;99.90;;;;;;4971044;28;20215;-56
2022/12/04 10:42:01;;;;;;;72.27;31.67;;;2.10;99.90;;;;;;4971337;28;20207;-57
2022/12/04 10:44:29;;;;;;;58.13;25.70;;;2.30;99.90;;;;;;4994511;28;20195;-56
2022/12/04 10:47:00;;;;;;;61.10;27.23;;;2.20;99.90;;;;;;4981437;28;20231;-57
2022/12/04 10:49:31;;;;;;;62.13;27.03;;;2.20;99.90;;;;;;4992198;28;20195;-56
2022/12/04 10:51:59;;;;;;;61.20;27.37;;;2.20;99.90;;;;;;4975501;28;20203;-56
2022/12/04 10:54:33;;;;;;;59.57;26.70;;;2.20;99.90;;;;;;4977450;28;20207;-56
2022/12/04 10:57:05;;;;;;;53.80;24.17;;;2.20;99.90;;;;;;4969311;28;20329;-56
2022/12/04 10:59:34;;;;;;;56.40;24.63;;;2.20;99.90;;;;;;4981010;28;20224;-56
2022/12/04 11:02:10;;;;;;;52.37;23.57;;;2.20;99.90;;;;;;4991746;28;20210;-56
2022/12/04 11:04:41;;;;;;;50.07;22.43;;;2.30;99.90;;;;;;4963788;28;20213;-56
2022/12/04 11:07:19;;;;;;;53.50;23.47;;;2.30;99.90;;;;;;5003267;28;20191;-56
2022/12/04 11:09:57;;;;;;;50.17;22.87;;;2.30;99.90;;;;;;4983957;28;20274;-57
2022/12/04 11:12:26;;;;;;;49.33;21.70;;;2.40;99.90;;;;;;5004341;28;20199;-56
2022/12/04 11:15:02;;;;;;;45.77;21.20;;;2.30;99.90;;;;;;4978571;28;20226;-56
2022/12/04 11:17:31;;;;;;;52.53;21.97;;;2.40;99.90;;;;;;4975961;28;20234;-57
2022/12/04 11:20:00;;;;;;;48.63;21.40;;;2.40;99.90;;;;;;4971888;28;20265;-57
2022/12/04 11:22:29;;;;;;;44.37;21.23;;;2.40;99.90;;;;;;4976138;28;20740;-56
2022/12/04 11:25:02;;;;;;;49.20;22.60;;;2.40;99.90;;;;;;4976369;28;20246;-56
2022/12/04 11:27:33;;;;;;;50.40;22.63;;;2.40;99.90;;;;;;4981021;28;20214;-56
2022/12/04 11:30:08;;;;;;;49.60;22.60;;;2.40;99.90;;;;;;4975599;28;20199;-56
2022/12/04 11:32:38;;;;;;;59.70;27.13;;;2.40;99.90;;;;;;5007295;28;20191;-56
2022/12/04 11:35:14;;;;;;;50.90;22.83;;;2.40;99.90;;;;;;4983907;28;20208;-56
2022/12/04 11:37:50;;;;;;;46.63;23.33;;;2.40;99.90;;;;;;4979347;28;20225;-56
2022/12/04 11:40:20;;;;;;;51.50;22.30;;;2.40;99.90;;;;;;4980067;28;20245;-56
2022/12/04 11:43:00;;;;;;;48.43;22.50;;;2.40;99.90;;;;;;4980998;28;20290;-56
2022/12/04 11:45:29;;;;;;;54.07;23.40;;;2.40;99.90;;;;;;4976056;28;20571;-57
2022/12/04 11:48:01;;;;;;;53.13;23.93;;;2.50;99.90;;;;;;4974905;28;20200;-55
2022/12/04 11:50:37;;;;;;;53.77;23.23;;;2.50;99.90;;;;;;4990476;28;20192;-56
2022/12/04 11:53:14;;;;;;;54.90;23.33;;;2.50;99.90;;;;;;5007708;28;20238;-57
2022/12/04 11:56:09;;;;;;;49.57;23.87;;;2.50;99.90;;;;;;4982982;28;20542;-56
2022/12/04 11:59:00;;;;;;;48.50;21.87;;;2.50;99.90;;;;;;4975794;28;20298;-57
2022/12/04 12:01:39;;;;;;;51.90;22.77;;;2.50;99.90;;;;;;4961125;28;20262;-56
2022/12/04 12:04:44;;;;;;;45.70;22.37;;;2.50;99.90;;;;;;4975073;28;20201;-57
2022/12/04 12:07:24;;;;;;;50.30;22.57;;;2.50;99.90;;;;;;4975081;28;20199;-56
2022/12/04 12:10:02;;;;;;;47.03;23.33;;;2.50;99.90;;;;;;4976170;28;20206;-56
2022/12/04 12:12:41;;;;;;;47.53;23.33;;;2.40;99.90;;;;;;4979867;28;20527;-56
2022/12/04 12:15:23;;;;;;;45.57;21.50;;;2.40;99.90;;;;;;4974047;28;20207;-57
2022/12/04 12:18:09;;;;;;;49.77;23.73;;;2.40;99.90;;;;;;4979328;28;20199;-56
2022/12/04 12:20:46;;;;;;;47.50;23.47;;;2.40;99.90;;;;;;4987831;28;20759;-57
2022/12/04 12:23:34;;;;;;;52.63;24.20;;;2.40;99.90;;;;;;4982612;28;20919;-57
2022/12/04 12:26:09;;;;;;;54.30;24.03;;;2.40;99.90;;;;;;4970521;28;20203;-56
2022/12/04 12:29:09;;;;;;;54.97;25.40;;;2.30;99.90;;;;;;4979207;28;20223;-56
2022/12/04 12:31:58;;;;;;;50.37;23.70;;;2.40;99.90;;;;;;4976243;28;20213;-56
2022/12/04 12:34:35;;;;;;;54.37;24.87;;;2.40;99.90;;;;;;4977442;28;20705;-56
2022/12/04 12:37:11;;;;;;;48.97;23.13;;;2.40;99.90;;;;;;4976896;28;20195;-57
2022/12/04 12:39:42;;;;;;;46.43;22.10;;;2.40;99.90;;;;;;4978718;28;20199;-57
2022/12/04 12:42:18;;;;;;;49.33;23.20;;;2.40;99.90;;;;;;4975831;28;20202;-56
2022/12/04 12:44:53;;;;;;;45.30;21.67;;;2.40;99.90;;;;;;4977489;28;20200;-56
2022/12/04 12:47:27;;;;;;;42.03;20.73;;;2.40;99.90;;;;;;4987031;28;20294;-57
2022/12/04 12:50:01;;;;;;;41.23;20.73;;;2.40;99.90;;;;;;4974364;28;20203;-57
2022/12/04 12:52:35;;;;;;;38.17;19.80;;;2.40;99.90;;;;;;4977596;28;20636;-57
2022/12/04 12:55:14;;;;;;;39.40;19.90;;;2.40;99.90;;;;;;4984314;28;20195;-57
2022/12/04 12:57:46;;;;;;;37.30;19.20;;;2.40;99.90;;;;;;4972946;28;20199;-57
2022/12/04 13:00:19;;;;;;;36.60;19.53;;;2.40;99.90;;;;;;4986159;28;20226;-56
2022/12/04 13:02:53;;;;;;;36.33;19.20;;;2.30;99.90;;;;;;4973356;28;20210;-57
2022/12/04 13:05:27;;;;;;;37.90;19.07;;;2.40;99.90;;;;;;4973546;28;20202;-56
2022/12/04 13:08:03;;;;;;;36.20;19.10;;;2.40;99.90;;;;;;4986991;28;20257;-56
2022/12/04 13:10:37;;;;;;;33.93;18.70;;;2.40;99.90;;;;;;4975961;28;20587;-56
2022/12/04 13:13:11;;;;;;;35.53;18.13;;;2.40;99.90;;;;;;4980189;28;20186;-56